sensor_id;sensor_type;location;lat;lon;timestamp;temperature;humidity
69393;SHT31;56582;44.624;20.378;2023-08-30T00:00:30;20.38;80.33
69393;SHT31;56582;44.624;20.378;2023-08-30T00:02:56;20.41;80.19
69393;SHT31;56582;44.624;20.378;2023-08-30T00:05:21;20.44;80.07
69393;SHT31;56582;44.624;20.378;2023-08-30T00:07:47;20.31;80.25
69393;SHT31;56582;44.624;20.378;2023-08-30T00:10:12;20.37;80.09
69393;SHT31;56582;44.624;20.378;2023-08-30T00:12:38;20.38;80.01
69393;SHT31;56582;44.624;20.378;2023-08-30T00:15:04;20.40;79.90
69393;SHT31;56582;44.624;20.378;2023-08-30T00:17:29;20.32;80.00
69393;SHT31;56582;44.624;20.378;2023-08-30T00:19:55;20.35;79.82
69393;SHT31;56582;44.624;20.378;2023-08-30T00:22:21;20.37;80.02
69393;SHT31;56582;44.624;20.378;2023-08-30T00:24:47;20.35;80.20
69393;SHT31;56582;44.624;20.378;2023-08-30T00:27:13;20.25;80.84
69393;SHT31;56582;44.624;20.378;2023-08-30T00:29:38;20.18;81.06
69393;SHT31;56582;44.624;20.378;2023-08-30T00:32:04;20.21;80.86
69393;SHT31;56582;44.624;20.378;2023-08-30T00:34:30;20.20;80.70
69393;SHT31;56582;44.624;20.378;2023-08-30T00:36:55;20.24;80.75
69393;SHT31;56582;44.624;20.378;2023-08-30T00:39:21;20.11;80.91
69393;SHT31;56582;44.624;20.378;2023-08-30T00:41:46;20.10;80.76
69393;SHT31;56582;44.624;20.378;2023-08-30T00:44:12;20.10;80.87
69393;SHT31;56582;44.624;20.378;2023-08-30T00:46:37;20.17;80.69
69393;SHT31;56582;44.624;20.378;2023-08-30T00:49:04;20.14;80.36
69393;SHT31;56582;44.624;20.378;2023-08-30T00:51:30;20.16;80.36
69393;SHT31;56582;44.624;20.378;2023-08-30T00:53:56;20.16;80.31
69393;SHT31;56582;44.624;20.378;2023-08-30T00:56:22;20.20;80.28
69393;SHT31;56582;44.624;20.378;2023-08-30T00:58:49;20.21;80.82
69393;SHT31;56582;44.624;20.378;2023-08-30T01:01:15;20.20;80.94
69393;SHT31;56582;44.624;20.378;2023-08-30T01:03:41;20.13;81.27
69393;SHT31;56582;44.624;20.378;2023-08-30T01:06:07;20.07;81.35
69393;SHT31;56582;44.624;20.378;2023-08-30T01:08:33;20.06;81.73
69393;SHT31;56582;44.624;20.378;2023-08-30T01:11:36;20.00;81.56
69393;SHT31;56582;44.624;20.378;2023-08-30T01:17:00;19.80;81.91
69393;SHT31;56582;44.624;20.378;2023-08-30T01:19:30;19.74;81.88
69393;SHT31;56582;44.624;20.378;2023-08-30T01:24:59;19.69;81.86
69393;SHT31;56582;44.624;20.378;2023-08-30T01:27:29;19.66;81.98
69393;SHT31;56582;44.624;20.378;2023-08-30T01:29:57;19.70;81.87
69393;SHT31;56582;44.624;20.378;2023-08-30T01:32:24;19.69;81.89
69393;SHT31;56582;44.624;20.378;2023-08-30T01:34:51;19.74;81.88
69393;SHT31;56582;44.624;20.378;2023-08-30T01:37:17;19.77;81.99
69393;SHT31;56582;44.624;20.378;2023-08-30T01:39:44;19.69;82.13
69393;SHT31;56582;44.624;20.378;2023-08-30T01:42:10;19.72;82.41
69393;SHT31;56582;44.624;20.378;2023-08-30T01:44:36;19.74;82.67
69393;SHT31;56582;44.624;20.378;2023-08-30T01:47:03;19.69;82.90
69393;SHT31;56582;44.624;20.378;2023-08-30T01:49:30;19.67;82.92
69393;SHT31;56582;44.624;20.378;2023-08-30T01:51:59;19.51;83.76
69393;SHT31;56582;44.624;20.378;2023-08-30T01:54:27;19.51;83.69
69393;SHT31;56582;44.624;20.378;2023-08-30T01:56:54;19.49;84.21
69393;SHT31;56582;44.624;20.378;2023-08-30T01:59:19;19.51;83.85
69393;SHT31;56582;44.624;20.378;2023-08-30T02:01:45;19.58;83.75
69393;SHT31;56582;44.624;20.378;2023-08-30T02:04:10;19.56;84.65
69393;SHT31;56582;44.624;20.378;2023-08-30T02:06:40;19.44;84.39
69393;SHT31;56582;44.624;20.378;2023-08-30T02:12:00;19.61;83.69
69393;SHT31;56582;44.624;20.378;2023-08-30T02:14:28;19.70;83.77
69393;SHT31;56582;44.624;20.378;2023-08-30T02:16:55;19.66;83.93
69393;SHT31;56582;44.624;20.378;2023-08-30T02:19:20;19.72;84.05
69393;SHT31;56582;44.624;20.378;2023-08-30T02:21:47;19.70;83.69
69393;SHT31;56582;44.624;20.378;2023-08-30T02:24:13;19.76;83.94
69393;SHT31;56582;44.624;20.378;2023-08-30T02:26:38;19.82;83.92
69393;SHT31;56582;44.624;20.378;2023-08-30T02:29:04;19.77;84.03
69393;SHT31;56582;44.624;20.378;2023-08-30T02:31:30;19.77;83.97
69393;SHT31;56582;44.624;20.378;2023-08-30T02:33:55;19.73;83.49
69393;SHT31;56582;44.624;20.378;2023-08-30T02:36:21;19.69;83.14
69393;SHT31;56582;44.624;20.378;2023-08-30T02:38:46;19.70;82.98
69393;SHT31;56582;44.624;20.378;2023-08-30T02:41:12;19.76;82.55
69393;SHT31;56582;44.624;20.378;2023-08-30T02:43:37;19.73;82.25
69393;SHT31;56582;44.624;20.378;2023-08-30T02:46:03;19.77;81.81
69393;SHT31;56582;44.624;20.378;2023-08-30T02:48:29;19.72;81.65
69393;SHT31;56582;44.624;20.378;2023-08-30T02:50:55;19.76;81.66
69393;SHT31;56582;44.624;20.378;2023-08-30T02:53:20;19.73;81.55
69393;SHT31;56582;44.624;20.378;2023-08-30T02:55:47;19.63;81.47
69393;SHT31;56582;44.624;20.378;2023-08-30T02:58:13;19.66;81.39
69393;SHT31;56582;44.624;20.378;2023-08-30T03:00:38;19.70;81.12
69393;SHT31;56582;44.624;20.378;2023-08-30T03:03:04;19.72;80.83
69393;SHT31;56582;44.624;20.378;2023-08-30T03:05:29;19.76;80.61
69393;SHT31;56582;44.624;20.378;2023-08-30T03:07:55;19.76;81.46
69393;SHT31;56582;44.624;20.378;2023-08-30T03:10:20;19.66;81.54
69393;SHT31;56582;44.624;20.378;2023-08-30T03:12:46;19.69;80.91
69393;SHT31;56582;44.624;20.378;2023-08-30T03:15:11;19.67;80.63
69393;SHT31;56582;44.624;20.378;2023-08-30T03:17:37;19.67;80.46
69393;SHT31;56582;44.624;20.378;2023-08-30T03:20:03;19.63;80.26
69393;SHT31;56582;44.624;20.378;2023-08-30T03:22:30;19.61;80.30
69393;SHT31;56582;44.624;20.378;2023-08-30T03:24:55;19.56;80.36
69393;SHT31;56582;44.624;20.378;2023-08-30T03:27:21;19.56;81.28
69393;SHT31;56582;44.624;20.378;2023-08-30T03:29:46;19.59;80.57
69393;SHT31;56582;44.624;20.378;2023-08-30T03:32:17;19.66;81.16
69393;SHT31;56582;44.624;20.378;2023-08-30T03:34:46;19.66;79.92
69393;SHT31;56582;44.624;20.378;2023-08-30T03:37:15;19.59;79.57
69393;SHT31;56582;44.624;20.378;2023-08-30T03:39:41;19.56;79.79
69393;SHT31;56582;44.624;20.378;2023-08-30T03:42:06;19.56;80.22
69393;SHT31;56582;44.624;20.378;2023-08-30T03:44:32;19.58;80.38
69393;SHT31;56582;44.624;20.378;2023-08-30T03:46:58;19.61;80.40
69393;SHT31;56582;44.624;20.378;2023-08-30T03:49:23;19.62;80.65
69393;SHT31;56582;44.624;20.378;2023-08-30T03:51:49;19.70;78.86
69393;SHT31;56582;44.624;20.378;2023-08-30T03:54:14;19.67;78.31
69393;SHT31;56582;44.624;20.378;2023-08-30T03:56:45;19.66;77.63
69393;SHT31;56582;44.624;20.378;2023-08-30T03:59:14;19.67;76.95
69393;SHT31;56582;44.624;20.378;2023-08-30T04:01:39;19.70;78.06
69393;SHT31;56582;44.624;20.378;2023-08-30T04:04:05;19.72;77.13
69393;SHT31;56582;44.624;20.378;2023-08-30T04:06:30;19.74;77.33
69393;SHT31;56582;44.624;20.378;2023-08-30T04:08:56;19.73;77.76
69393;SHT31;56582;44.624;20.378;2023-08-30T04:11:22;19.77;78.08
69393;SHT31;56582;44.624;20.378;2023-08-30T04:13:47;19.80;78.40
69393;SHT31;56582;44.624;20.378;2023-08-30T04:16:13;19.84;78.89
69393;SHT31;56582;44.624;20.378;2023-08-30T04:18:38;19.98;77.91
69393;SHT31;56582;44.624;20.378;2023-08-30T04:21:04;20.03;78.40
69393;SHT31;56582;44.624;20.378;2023-08-30T04:23:31;20.04;78.66
69393;SHT31;56582;44.624;20.378;2023-08-30T04:25:57;20.13;78.45
69393;SHT31;56582;44.624;20.378;2023-08-30T04:28:22;20.23;77.98
69393;SHT31;56582;44.624;20.378;2023-08-30T04:30:48;20.27;78.14
69393;SHT31;56582;44.624;20.378;2023-08-30T04:33:13;20.27;78.10
69393;SHT31;56582;44.624;20.378;2023-08-30T04:35:39;20.44;78.44
69393;SHT31;56582;44.624;20.378;2023-08-30T04:38:04;20.62;77.02
69393;SHT31;56582;44.624;20.378;2023-08-30T04:40:30;20.68;77.17
69393;SHT31;56582;44.624;20.378;2023-08-30T04:42:58;20.76;76.56
69393;SHT31;56582;44.624;20.378;2023-08-30T04:45:23;20.82;76.27
69393;SHT31;56582;44.624;20.378;2023-08-30T04:47:48;20.90;76.63
69393;SHT31;56582;44.624;20.378;2023-08-30T04:50:14;21.00;76.36
69393;SHT31;56582;44.624;20.378;2023-08-30T04:52:39;21.14;76.22
69393;SHT31;56582;44.624;20.378;2023-08-30T04:55:05;21.20;75.60
69393;SHT31;56582;44.624;20.378;2023-08-30T04:57:31;21.27;76.38
69393;SHT31;56582;44.624;20.378;2023-08-30T04:59:57;21.26;76.58
69393;SHT31;56582;44.624;20.378;2023-08-30T05:02:22;21.34;78.91
69393;SHT31;56582;44.624;20.378;2023-08-30T05:04:48;21.55;84.66
69393;SHT31;56582;44.624;20.378;2023-08-30T05:07:13;21.64;81.37
69393;SHT31;56582;44.624;20.378;2023-08-30T05:09:39;21.65;77.67
69393;SHT31;56582;44.624;20.378;2023-08-30T05:12:06;21.61;77.61
69393;SHT31;56582;44.624;20.378;2023-08-30T05:14:31;21.39;77.10
69393;SHT31;56582;44.624;20.378;2023-08-30T05:16:57;21.47;78.81
69393;SHT31;56582;44.624;20.378;2023-08-30T05:19:22;21.37;77.59
69393;SHT31;56582;44.624;20.378;2023-08-30T05:21:48;21.33;78.26
69393;SHT31;56582;44.624;20.378;2023-08-30T05:24:17;21.27;78.27
69393;SHT31;56582;44.624;20.378;2023-08-30T05:26:42;21.24;78.41
69393;SHT31;56582;44.624;20.378;2023-08-30T05:29:08;21.20;78.62
69393;SHT31;56582;44.624;20.378;2023-08-30T05:31:33;20.88;78.53
69393;SHT31;56582;44.624;20.378;2023-08-30T05:34:00;20.75;79.28
69393;SHT31;56582;44.624;20.378;2023-08-30T05:36:25;20.42;80.52
69393;SHT31;56582;44.624;20.378;2023-08-30T05:38:50;20.51;80.82
69393;SHT31;56582;44.624;20.378;2023-08-30T05:41:16;20.65;80.25
69393;SHT31;56582;44.624;20.378;2023-08-30T05:43:41;20.61;79.75
69393;SHT31;56582;44.624;20.378;2023-08-30T05:46:07;20.67;79.79
69393;SHT31;56582;44.624;20.378;2023-08-30T05:48:37;20.73;80.66
69393;SHT31;56582;44.624;20.378;2023-08-30T05:51:05;20.76;81.07
69393;SHT31;56582;44.624;20.378;2023-08-30T05:53:30;20.81;81.06
69393;SHT31;56582;44.624;20.378;2023-08-30T05:55:56;20.89;80.49
69393;SHT31;56582;44.624;20.378;2023-08-30T05:58:21;20.98;80.26
69393;SHT31;56582;44.624;20.378;2023-08-30T06:00:47;20.90;79.91
69393;SHT31;56582;44.624;20.378;2023-08-30T06:03:12;20.83;80.34
69393;SHT31;56582;44.624;20.378;2023-08-30T06:05:37;20.89;80.11
69393;SHT31;56582;44.624;20.378;2023-08-30T06:08:03;20.95;79.08
69393;SHT31;56582;44.624;20.378;2023-08-30T06:10:29;21.03;79.43
69393;SHT31;56582;44.624;20.378;2023-08-30T06:12:54;21.03;79.48
69393;SHT31;56582;44.624;20.378;2023-08-30T06:15:20;20.98;80.94
69393;SHT31;56582;44.624;20.378;2023-08-30T06:17:45;20.98;81.37
69393;SHT31;56582;44.624;20.378;2023-08-30T06:20:12;20.98;81.45
69393;SHT31;56582;44.624;20.378;2023-08-30T06:22:38;20.88;81.25
69393;SHT31;56582;44.624;20.378;2023-08-30T06:25:04;20.92;81.35
69393;SHT31;56582;44.624;20.378;2023-08-30T06:27:32;20.86;80.89
69393;SHT31;56582;44.624;20.378;2023-08-30T06:29:57;20.79;79.91
69393;SHT31;56582;44.624;20.378;2023-08-30T06:32:23;20.81;81.07
69393;SHT31;56582;44.624;20.378;2023-08-30T06:34:48;20.86;80.77
69393;SHT31;56582;44.624;20.378;2023-08-30T06:37:14;20.88;80.39
69393;SHT31;56582;44.624;20.378;2023-08-30T06:39:39;20.96;78.95
69393;SHT31;56582;44.624;20.378;2023-08-30T06:42:05;20.95;80.08
69393;SHT31;56582;44.624;20.378;2023-08-30T06:44:30;21.00;79.62
69393;SHT31;56582;44.624;20.378;2023-08-30T06:46:56;20.96;79.97
69393;SHT31;56582;44.624;20.378;2023-08-30T06:49:23;20.90;80.77
69393;SHT31;56582;44.624;20.378;2023-08-30T06:51:48;20.86;80.78
69393;SHT31;56582;44.624;20.378;2023-08-30T06:54:13;20.79;80.14
69393;SHT31;56582;44.624;20.378;2023-08-30T06:56:39;20.73;79.71
69393;SHT31;56582;44.624;20.378;2023-08-30T06:59:04;20.73;80.99
69393;SHT31;56582;44.624;20.378;2023-08-30T07:01:30;20.78;80.61
69393;SHT31;56582;44.624;20.378;2023-08-30T07:03:55;20.82;80.26
69393;SHT31;56582;44.624;20.378;2023-08-30T07:06:21;20.95;79.89
69393;SHT31;56582;44.624;20.378;2023-08-30T07:08:46;21.02;79.10
69393;SHT31;56582;44.624;20.378;2023-08-30T07:11:12;21.07;78.01
69393;SHT31;56582;44.624;20.378;2023-08-30T07:13:37;21.16;78.94
69393;SHT31;56582;44.624;20.378;2023-08-30T07:16:03;21.23;78.87
69393;SHT31;56582;44.624;20.378;2023-08-30T07:18:29;21.26;75.97
69393;SHT31;56582;44.624;20.378;2023-08-30T07:20:54;21.34;76.02
69393;SHT31;56582;44.624;20.378;2023-08-30T07:23:19;21.40;74.36
69393;SHT31;56582;44.624;20.378;2023-08-30T07:25:45;21.40;74.71
69393;SHT31;56582;44.624;20.378;2023-08-30T07:28:10;21.33;75.44
69393;SHT31;56582;44.624;20.378;2023-08-30T07:30:36;21.23;74.50
69393;SHT31;56582;44.624;20.378;2023-08-30T07:33:03;21.30;74.44
69393;SHT31;56582;44.624;20.378;2023-08-30T07:35:30;21.31;75.49
69393;SHT31;56582;44.624;20.378;2023-08-30T07:37:55;21.20;78.42
69393;SHT31;56582;44.624;20.378;2023-08-30T07:40:21;21.20;79.11
69393;SHT31;56582;44.624;20.378;2023-08-30T07:42:49;21.10;79.19
69393;SHT31;56582;44.624;20.378;2023-08-30T07:45:15;21.13;79.12
69393;SHT31;56582;44.624;20.378;2023-08-30T07:47:40;21.07;78.92
69393;SHT31;56582;44.624;20.378;2023-08-30T07:50:06;21.11;79.96
69393;SHT31;56582;44.624;20.378;2023-08-30T07:52:32;21.11;80.25
69393;SHT31;56582;44.624;20.378;2023-08-30T07:54:58;21.06;79.09
69393;SHT31;56582;44.624;20.378;2023-08-30T07:57:23;21.10;78.34
69393;SHT31;56582;44.624;20.378;2023-08-30T07:59:48;21.13;78.93
69393;SHT31;56582;44.624;20.378;2023-08-30T08:02:14;21.13;79.20
69393;SHT31;56582;44.624;20.378;2023-08-30T08:04:39;21.24;79.42
69393;SHT31;56582;44.624;20.378;2023-08-30T08:07:05;21.18;79.34
69393;SHT31;56582;44.624;20.378;2023-08-30T08:09:31;21.30;79.55
69393;SHT31;56582;44.624;20.378;2023-08-30T08:11:56;21.23;76.77
69393;SHT31;56582;44.624;20.378;2023-08-30T08:14:23;21.34;77.33
69393;SHT31;56582;44.624;20.378;2023-08-30T08:16:49;21.41;77.27
69393;SHT31;56582;44.624;20.378;2023-08-30T08:19:14;21.57;78.28
69393;SHT31;56582;44.624;20.378;2023-08-30T08:21:39;21.69;76.87
69393;SHT31;56582;44.624;20.378;2023-08-30T08:24:05;21.68;74.59
69393;SHT31;56582;44.624;20.378;2023-08-30T08:26:31;21.79;74.96
69393;SHT31;56582;44.624;20.378;2023-08-30T08:28:56;21.91;76.75
69393;SHT31;56582;44.624;20.378;2023-08-30T08:31:22;22.02;76.24
69393;SHT31;56582;44.624;20.378;2023-08-30T08:33:51;21.98;75.86
69393;SHT31;56582;44.624;20.378;2023-08-30T08:36:16;21.99;74.66
69393;SHT31;56582;44.624;20.378;2023-08-30T08:38:42;22.08;74.96
69393;SHT31;56582;44.624;20.378;2023-08-30T08:41:10;22.13;73.68
69393;SHT31;56582;44.624;20.378;2023-08-30T08:43:37;22.16;73.57
69393;SHT31;56582;44.624;20.378;2023-08-30T08:46:05;22.26;74.26
69393;SHT31;56582;44.624;20.378;2023-08-30T08:48:39;22.32;75.22
69393;SHT31;56582;44.624;20.378;2023-08-30T08:51:05;22.57;75.05
69393;SHT31;56582;44.624;20.378;2023-08-30T08:53:31;22.45;73.21
69393;SHT31;56582;44.624;20.378;2023-08-30T08:55:58;22.50;72.35
69393;SHT31;56582;44.624;20.378;2023-08-30T08:58:23;22.50;72.69
69393;SHT31;56582;44.624;20.378;2023-08-30T09:00:49;22.68;72.41
69393;SHT31;56582;44.624;20.378;2023-08-30T09:03:15;22.91;73.32
69393;SHT31;56582;44.624;20.378;2023-08-30T09:05:43;22.98;72.84
69393;SHT31;56582;44.624;20.378;2023-08-30T09:08:10;22.97;73.47
69393;SHT31;56582;44.624;20.378;2023-08-30T09:10:37;23.01;73.43
69393;SHT31;56582;44.624;20.378;2023-08-30T09:13:03;23.10;69.60
69393;SHT31;56582;44.624;20.378;2023-08-30T09:15:34;23.18;71.53
69393;SHT31;56582;44.624;20.378;2023-08-30T09:18:02;23.33;71.17
69393;SHT31;56582;44.624;20.378;2023-08-30T09:20:31;23.52;69.32
69393;SHT31;56582;44.624;20.378;2023-08-30T09:22:56;23.58;69.94
69393;SHT31;56582;44.624;20.378;2023-08-30T09:25:26;23.59;68.78
69393;SHT31;56582;44.624;20.378;2023-08-30T09:27:59;23.73;70.27
69393;SHT31;56582;44.624;20.378;2023-08-30T09:30:24;23.82;71.04
69393;SHT31;56582;44.624;20.378;2023-08-30T09:32:50;23.87;70.71
69393;SHT31;56582;44.624;20.378;2023-08-30T09:35:16;24.04;70.97
69393;SHT31;56582;44.624;20.378;2023-08-30T09:37:44;24.11;71.84
69393;SHT31;56582;44.624;20.378;2023-08-30T09:40:10;24.06;69.62
69393;SHT31;56582;44.624;20.378;2023-08-30T09:42:40;24.13;69.70
69393;SHT31;56582;44.624;20.378;2023-08-30T09:45:21;24.22;69.40
69393;SHT31;56582;44.624;20.378;2023-08-30T09:47:48;24.42;72.03
69393;SHT31;56582;44.624;20.378;2023-08-30T09:50:17;24.61;72.45
69393;SHT31;56582;44.624;20.378;2023-08-30T09:52:42;24.82;66.56
69393;SHT31;56582;44.624;20.378;2023-08-30T09:55:09;25.22;67.85
69393;SHT31;56582;44.624;20.378;2023-08-30T09:57:35;25.46;68.04
69393;SHT31;56582;44.624;20.378;2023-08-30T10:00:01;25.64;66.18
69393;SHT31;56582;44.624;20.378;2023-08-30T10:02:29;25.92;64.17
69393;SHT31;56582;44.624;20.378;2023-08-30T10:04:56;26.08;64.59
69393;SHT31;56582;44.624;20.378;2023-08-30T10:07:23;26.28;62.81
69393;SHT31;56582;44.624;20.378;2023-08-30T10:09:51;26.44;57.96
69393;SHT31;56582;44.624;20.378;2023-08-30T10:12:23;26.49;60.20
69393;SHT31;56582;44.624;20.378;2023-08-30T10:14:49;26.70;59.27
69393;SHT31;56582;44.624;20.378;2023-08-30T10:17:18;26.87;56.38
69393;SHT31;56582;44.624;20.378;2023-08-30T10:19:43;26.74;55.76
69393;SHT31;56582;44.624;20.378;2023-08-30T10:22:11;26.74;59.56
69393;SHT31;56582;44.624;20.378;2023-08-30T10:24:48;26.70;56.50
69393;SHT31;56582;44.624;20.378;2023-08-30T10:27:15;26.77;57.26
69393;SHT31;56582;44.624;20.378;2023-08-30T10:29:42;27.10;57.55
69393;SHT31;56582;44.624;20.378;2023-08-30T10:32:08;27.29;54.86
69393;SHT31;56582;44.624;20.378;2023-08-30T10:34:34;27.53;54.40
69393;SHT31;56582;44.624;20.378;2023-08-30T10:37:00;27.78;53.02
69393;SHT31;56582;44.624;20.378;2023-08-30T10:39:37;28.04;54.45
69393;SHT31;56582;44.624;20.378;2023-08-30T10:42:09;28.27;52.72
69393;SHT31;56582;44.624;20.378;2023-08-30T10:44:46;28.44;51.84
69393;SHT31;56582;44.624;20.378;2023-08-30T10:47:18;28.44;52.20
69393;SHT31;56582;44.624;20.378;2023-08-30T10:49:46;28.44;50.25
69393;SHT31;56582;44.624;20.378;2023-08-30T10:52:12;28.40;50.95
69393;SHT31;56582;44.624;20.378;2023-08-30T10:54:38;28.41;49.54
69393;SHT31;56582;44.624;20.378;2023-08-30T10:57:04;28.47;48.78
69393;SHT31;56582;44.624;20.378;2023-08-30T10:59:30;28.47;48.62
69393;SHT31;56582;44.624;20.378;2023-08-30T11:01:56;28.44;48.43
69393;SHT31;56582;44.624;20.378;2023-08-30T11:04:26;28.51;49.14
69393;SHT31;56582;44.624;20.378;2023-08-30T11:06:55;28.64;49.41
69393;SHT31;56582;44.624;20.378;2023-08-30T11:09:22;28.72;48.58
69393;SHT31;56582;44.624;20.378;2023-08-30T11:11:48;28.74;44.75
69393;SHT31;56582;44.624;20.378;2023-08-30T11:14:15;28.71;46.62
69393;SHT31;56582;44.624;20.378;2023-08-30T11:16:41;28.59;47.06
69393;SHT31;56582;44.624;20.378;2023-08-30T11:19:08;28.61;47.89
69393;SHT31;56582;44.624;20.378;2023-08-30T11:21:39;28.62;48.17
69393;SHT31;56582;44.624;20.378;2023-08-30T11:24:06;28.83;48.95
69393;SHT31;56582;44.624;20.378;2023-08-30T11:26:32;29.05;50.28
69393;SHT31;56582;44.624;20.378;2023-08-30T11:28:57;29.03;45.75
69393;SHT31;56582;44.624;20.378;2023-08-30T11:31:24;28.95;47.04
69393;SHT31;56582;44.624;20.378;2023-08-30T11:33:54;28.92;47.77
69393;SHT31;56582;44.624;20.378;2023-08-30T11:36:21;29.00;46.39
69393;SHT31;56582;44.624;20.378;2023-08-30T11:38:48;28.95;45.34
69393;SHT31;56582;44.624;20.378;2023-08-30T11:41:14;28.95;45.38
69393;SHT31;56582;44.624;20.378;2023-08-30T11:43:40;28.74;44.23
69393;SHT31;56582;44.624;20.378;2023-08-30T11:46:05;28.82;45.61
69393;SHT31;56582;44.624;20.378;2023-08-30T11:48:31;29.02;45.92
69393;SHT31;56582;44.624;20.378;2023-08-30T11:50:58;28.91;43.52
69393;SHT31;56582;44.624;20.378;2023-08-30T11:53:24;28.88;45.39
69393;SHT31;56582;44.624;20.378;2023-08-30T11:55:51;28.92;43.49
69393;SHT31;56582;44.624;20.378;2023-08-30T11:58:20;28.94;44.15
69393;SHT31;56582;44.624;20.378;2023-08-30T12:00:46;28.96;45.63
69393;SHT31;56582;44.624;20.378;2023-08-30T12:03:14;28.59;44.27
69393;SHT31;56582;44.624;20.378;2023-08-30T12:05:47;28.41;45.00
69393;SHT31;56582;44.624;20.378;2023-08-30T12:10:45;28.43;46.12
69393;SHT31;56582;44.624;20.378;2023-08-30T12:13:25;28.54;46.00
69393;SHT31;56582;44.624;20.378;2023-08-30T12:15:52;28.69;45.07
69393;SHT31;56582;44.624;20.378;2023-08-30T12:18:27;28.38;44.50
69393;SHT31;56582;44.624;20.378;2023-08-30T12:21:13;28.44;45.17
69393;SHT31;56582;44.624;20.378;2023-08-30T12:23:39;28.65;46.18
69393;SHT31;56582;44.624;20.378;2023-08-30T12:26:07;28.37;43.95
69393;SHT31;56582;44.624;20.378;2023-08-30T12:28:41;28.34;43.59
69393;SHT31;56582;44.624;20.378;2023-08-30T12:31:07;28.51;46.01
69393;SHT31;56582;44.624;20.378;2023-08-30T12:33:33;28.68;43.55
69393;SHT31;56582;44.624;20.378;2023-08-30T12:36:00;28.52;45.04
69393;SHT31;56582;44.624;20.378;2023-08-30T12:38:26;28.58;44.22
69393;SHT31;56582;44.624;20.378;2023-08-30T12:40:53;28.75;44.92
69393;SHT31;56582;44.624;20.378;2023-08-30T12:43:19;28.89;44.32
69393;SHT31;56582;44.624;20.378;2023-08-30T12:45:48;29.09;48.15
69393;SHT31;56582;44.624;20.378;2023-08-30T12:48:15;29.20;45.16
69393;SHT31;56582;44.624;20.378;2023-08-30T12:50:42;29.23;46.56
69393;SHT31;56582;44.624;20.378;2023-08-30T12:53:08;29.22;44.70
69393;SHT31;56582;44.624;20.378;2023-08-30T12:55:34;29.02;43.09
69393;SHT31;56582;44.624;20.378;2023-08-30T12:58:00;28.85;41.92
69393;SHT31;56582;44.624;20.378;2023-08-30T13:00:26;28.89;42.79
69393;SHT31;56582;44.624;20.378;2023-08-30T13:02:51;29.13;43.67
69393;SHT31;56582;44.624;20.378;2023-08-30T13:05:17;29.31;43.06
69393;SHT31;56582;44.624;20.378;2023-08-30T13:07:43;29.30;44.83
69393;SHT31;56582;44.624;20.378;2023-08-30T13:10:09;29.36;44.18
69393;SHT31;56582;44.624;20.378;2023-08-30T13:12:35;29.49;44.43
69393;SHT31;56582;44.624;20.378;2023-08-30T13:15:01;29.55;42.09
69393;SHT31;56582;44.624;20.378;2023-08-30T13:17:27;29.77;44.39
69393;SHT31;56582;44.624;20.378;2023-08-30T13:19:52;29.86;43.99
69393;SHT31;56582;44.624;20.378;2023-08-30T13:22:18;29.89;43.78
69393;SHT31;56582;44.624;20.378;2023-08-30T13:24:44;29.84;42.84
69393;SHT31;56582;44.624;20.378;2023-08-30T13:27:10;29.67;42.89
69393;SHT31;56582;44.624;20.378;2023-08-30T13:29:36;29.77;43.80
69393;SHT31;56582;44.624;20.378;2023-08-30T13:32:02;29.64;42.12
69393;SHT31;56582;44.624;20.378;2023-08-30T13:34:28;29.64;43.91
69393;SHT31;56582;44.624;20.378;2023-08-30T13:36:54;29.80;43.93
69393;SHT31;56582;44.624;20.378;2023-08-30T13:39:19;29.88;42.80
69393;SHT31;56582;44.624;20.378;2023-08-30T13:41:46;29.68;41.15
69393;SHT31;56582;44.624;20.378;2023-08-30T13:44:13;28.99;46.76
69393;SHT31;56582;44.624;20.378;2023-08-30T13:46:38;28.68;50.47
69393;SHT31;56582;44.624;20.378;2023-08-30T13:49:04;28.62;49.15
69393;SHT31;56582;44.624;20.378;2023-08-30T13:51:30;28.48;50.84
69393;SHT31;56582;44.624;20.378;2023-08-30T13:53:55;27.93;49.21
69393;SHT31;56582;44.624;20.378;2023-08-30T13:56:22;27.76;52.47
69393;SHT31;56582;44.624;20.378;2023-08-30T13:58:47;27.65;54.19
69393;SHT31;56582;44.624;20.378;2023-08-30T14:01:13;27.29;53.50
69393;SHT31;56582;44.624;20.378;2023-08-30T14:03:38;27.45;54.14
69393;SHT31;56582;44.624;20.378;2023-08-30T14:06:04;27.39;53.40
69393;SHT31;56582;44.624;20.378;2023-08-30T14:08:30;27.04;52.48
69393;SHT31;56582;44.624;20.378;2023-08-30T14:10:56;26.80;53.74
69393;SHT31;56582;44.624;20.378;2023-08-30T14:13:22;26.53;55.91
69393;SHT31;56582;44.624;20.378;2023-08-30T14:15:47;26.54;54.49
69393;SHT31;56582;44.624;20.378;2023-08-30T14:18:14;26.54;54.47
69393;SHT31;56582;44.624;20.378;2023-08-30T14:20:41;26.52;54.99
69393;SHT31;56582;44.624;20.378;2023-08-30T14:23:06;26.59;55.77
69393;SHT31;56582;44.624;20.378;2023-08-30T14:25:32;26.57;55.79
69393;SHT31;56582;44.624;20.378;2023-08-30T14:27:57;26.57;56.28
69393;SHT31;56582;44.624;20.378;2023-08-30T14:30:25;26.57;57.33
69393;SHT31;56582;44.624;20.378;2023-08-30T14:32:51;26.37;57.12
69393;SHT31;56582;44.624;20.378;2023-08-30T14:35:16;26.18;57.87
69393;SHT31;56582;44.624;20.378;2023-08-30T14:37:42;26.05;57.61
69393;SHT31;56582;44.624;20.378;2023-08-30T14:40:08;25.91;57.69
69393;SHT31;56582;44.624;20.378;2023-08-30T14:42:33;25.70;58.97
69393;SHT31;56582;44.624;20.378;2023-08-30T14:44:59;25.53;59.71
69393;SHT31;56582;44.624;20.378;2023-08-30T14:47:25;25.64;60.02
69393;SHT31;56582;44.624;20.378;2023-08-30T14:49:50;25.30;61.36
69393;SHT31;56582;44.624;20.378;2023-08-30T14:52:16;25.40;61.34
69393;SHT31;56582;44.624;20.378;2023-08-30T14:54:45;25.22;61.81
69393;SHT31;56582;44.624;20.378;2023-08-30T14:57:10;25.33;62.40
69393;SHT31;56582;44.624;20.378;2023-08-30T14:59:36;25.40;62.16
69393;SHT31;56582;44.624;20.378;2023-08-30T15:02:01;25.37;63.82
69393;SHT31;56582;44.624;20.378;2023-08-30T15:04:27;25.22;63.91
69393;SHT31;56582;44.624;20.378;2023-08-30T15:06:52;25.26;62.78
69393;SHT31;56582;44.624;20.378;2023-08-30T15:09:17;25.20;62.56
69393;SHT31;56582;44.624;20.378;2023-08-30T15:11:44;25.03;63.76
69393;SHT31;56582;44.624;20.378;2023-08-30T15:14:10;25.03;62.93
69393;SHT31;56582;44.624;20.378;2023-08-30T15:16:36;25.07;63.44
69393;SHT31;56582;44.624;20.378;2023-08-30T15:19:02;25.17;64.54
69393;SHT31;56582;44.624;20.378;2023-08-30T15:21:31;25.19;65.42